sensor_id;sensor_type;location;lat;lon;timestamp;pressure;altitude;pressure_sealevel;temperature;humidity
17450;BME280;8842;51.244;7.102;2023-12-28T00:01:10;98932.02;;;7.60;100.00
17450;BME280;8842;51.244;7.102;2023-12-28T00:06:15;98941.39;;;7.59;100.00
17450;BME280;8842;51.244;7.102;2023-12-28T00:11:19;98950.22;;;7.52;100.00
17450;BME280;8842;51.244;7.102;2023-12-28T00:16:24;98955.62;;;7.51;100.00
17450;BME280;8842;51.244;7.102;2023-12-28T00:26:40;98978.27;;;7.60;100.00
17450;BME280;8842;51.244;7.102;2023-12-28T00:31:44;98963.38;;;7.59;100.00
17450;BME280;8842;51.244;7.102;2023-12-28T00:36:48;98960.98;;;7.62;100.00
17450;BME280;8842;51.244;7.102;2023-12-28T00:41:52;98967.27;;;7.72;100.00
17450;BME280;8842;51.244;7.102;2023-12-28T00:46:57;98959.45;;;7.70;100.00
17450;BME280;8842;51.244;7.102;2023-12-28T00:52:01;98974.76;;;7.78;100.00
17450;BME280;8842;51.244;7.102;2023-12-28T01:02:17;98990.69;;;7.89;100.00
17450;BME280;8842;51.244;7.102;2023-12-28T01:07:21;98992.83;;;7.89;100.00
17450;BME280;8842;51.244;7.102;2023-12-28T01:17:39;98991.95;;;8.07;100.00
17450;BME280;8842;51.244;7.102;2023-12-28T01:27:55;98994.00;;;8.27;100.00
17450;BME280;8842;51.244;7.102;2023-12-28T01:32:59;99005.84;;;8.40;100.00
17450;BME280;8842;51.244;7.102;2023-12-28T01:43:17;98990.88;;;8.68;100.00
17450;BME280;8842;51.244;7.102;2023-12-28T01:53:33;99013.06;;;8.94;100.00
17450;BME280;8842;51.244;7.102;2023-12-28T01:58:38;99007.88;;;8.98;100.00
17450;BME280;8842;51.244;7.102;2023-12-28T02:08:55;99014.98;;;9.20;100.00
17450;BME280;8842;51.244;7.102;2023-12-28T02:14:00;99005.13;;;9.16;100.00
17450;BME280;8842;51.244;7.102;2023-12-28T02:19:08;99015.11;;;9.18;100.00
17450;BME280;8842;51.244;7.102;2023-12-28T02:24:12;99025.58;;;9.20;100.00
17450;BME280;8842;51.244;7.102;2023-12-28T02:34:31;99030.06;;;9.36;100.00
17450;BME280;8842;51.244;7.102;2023-12-28T02:44:48;99019.59;;;9.34;100.00
17450;BME280;8842;51.244;7.102;2023-12-28T02:49:53;99028.13;;;9.32;100.00
17450;BME280;8842;51.244;7.102;2023-12-28T03:00:10;99020.42;;;9.29;100.00
17450;BME280;8842;51.244;7.102;2023-12-28T03:05:14;99033.56;;;9.25;100.00
17450;BME280;8842;51.244;7.102;2023-12-28T03:15:33;99015.61;;;9.34;100.00
17450;BME280;8842;51.244;7.102;2023-12-28T03:25:49;99009.47;;;9.28;100.00
17450;BME280;8842;51.244;7.102;2023-12-28T03:36:05;99027.39;;;9.30;100.00
17450;BME280;8842;51.244;7.102;2023-12-28T03:46:28;99031.84;;;9.24;100.00
17450;BME280;8842;51.244;7.102;2023-12-28T03:51:32;99025.84;;;9.22;100.00
17450;BME280;8842;51.244;7.102;2023-12-28T04:01:48;99010.80;;;9.28;100.00
17450;BME280;8842;51.244;7.102;2023-12-28T04:06:52;99011.03;;;9.25;100.00
17450;BME280;8842;51.244;7.102;2023-12-28T04:17:08;99020.29;;;9.36;100.00
17450;BME280;8842;51.244;7.102;2023-12-28T04:22:12;99023.66;;;9.27;100.00
17450;BME280;8842;51.244;7.102;2023-12-28T04:27:16;99013.91;;;9.33;100.00
17450;BME280;8842;51.244;7.102;2023-12-28T04:37:32;99011.38;;;9.43;100.00
17450;BME280;8842;51.244;7.102;2023-12-28T04:42:36;99004.63;;;9.33;100.00
17450;BME280;8842;51.244;7.102;2023-12-28T04:52:52;99006.80;;;9.39;100.00
17450;BME280;8842;51.244;7.102;2023-12-28T04:57:56;99003.19;;;9.35;100.00
17450;BME280;8842;51.244;7.102;2023-12-28T05:08:12;99001.14;;;9.38;100.00
17450;BME280;8842;51.244;7.102;2023-12-28T05:18:28;99007.18;;;9.40;100.00
17450;BME280;8842;51.244;7.102;2023-12-28T05:23:32;99006.22;;;9.36;100.00
17450;BME280;8842;51.244;7.102;2023-12-28T05:33:48;99012.97;;;9.34;100.00
17450;BME280;8842;51.244;7.102;2023-12-28T05:38:52;99029.10;;;9.48;100.00
17450;BME280;8842;51.244;7.102;2023-12-28T05:43:56;99033.55;;;9.47;100.00
17450;BME280;8842;51.244;7.102;2023-12-28T05:54:14;99042.10;;;9.56;100.00
17450;BME280;8842;51.244;7.102;2023-12-28T05:59:18;99061.38;;;9.64;100.00
17450;BME280;8842;51.244;7.102;2023-12-28T06:04:24;99060.90;;;9.53;100.00
17450;BME280;8842;51.244;7.102;2023-12-28T06:09:28;99065.48;;;9.46;100.00
17450;BME280;8842;51.244;7.102;2023-12-28T06:14:33;99091.98;;;9.51;100.00
17450;BME280;8842;51.244;7.102;2023-12-28T06:19:37;99079.11;;;9.52;100.00
17450;BME280;8842;51.244;7.102;2023-12-28T06:24:41;99084.02;;;9.51;100.00
17450;BME280;8842;51.244;7.102;2023-12-28T06:34:56;99084.41;;;9.52;100.00
17450;BME280;8842;51.244;7.102;2023-12-28T06:40:01;99078.49;;;9.49;100.00
17450;BME280;8842;51.244;7.102;2023-12-28T06:45:06;99089.93;;;9.38;100.00
17450;BME280;8842;51.244;7.102;2023-12-28T06:50:10;99092.34;;;9.47;100.00
17450;BME280;8842;51.244;7.102;2023-12-28T06:55:15;99088.74;;;9.48;100.00
17450;BME280;8842;51.244;7.102;2023-12-28T07:00:19;99088.63;;;9.49;100.00
17450;BME280;8842;51.244;7.102;2023-12-28T07:05:23;99087.27;;;9.44;100.00
17450;BME280;8842;51.244;7.102;2023-12-28T07:10:27;99076.31;;;9.48;100.00
17450;BME280;8842;51.244;7.102;2023-12-28T07:15:31;99078.62;;;9.42;100.00
17450;BME280;8842;51.244;7.102;2023-12-28T07:20:35;99079.94;;;9.47;100.00
17450;BME280;8842;51.244;7.102;2023-12-28T07:25:39;99091.98;;;9.40;100.00
17450;BME280;8842;51.244;7.102;2023-12-28T07:30:43;99097.66;;;9.52;100.00
17450;BME280;8842;51.244;7.102;2023-12-28T07:40:58;99106.31;;;9.54;100.00
17450;BME280;8842;51.244;7.102;2023-12-28T07:46:03;99111.27;;;9.53;100.00
17450;BME280;8842;51.244;7.102;2023-12-28T07:51:07;99118.98;;;9.51;100.00
17450;BME280;8842;51.244;7.102;2023-12-28T07:56:11;99125.11;;;9.51;100.00
17450;BME280;8842;51.244;7.102;2023-12-28T08:01:15;99123.92;;;9.61;100.00
17450;BME280;8842;51.244;7.102;2023-12-28T08:06:19;99128.96;;;9.58;100.00
17450;BME280;8842;51.244;7.102;2023-12-28T08:11:23;99128.38;;;9.60;100.00
17450;BME280;8842;51.244;7.102;2023-12-28T08:16:28;99145.95;;;9.61;100.00
17450;BME280;8842;51.244;7.102;2023-12-28T08:21:32;99130.67;;;9.65;100.00
17450;BME280;8842;51.244;7.102;2023-12-28T08:26:36;99142.10;;;9.60;100.00
17450;BME280;8842;51.244;7.102;2023-12-28T08:31:40;99151.38;;;9.60;100.00
17450;BME280;8842;51.244;7.102;2023-12-28T08:41:56;99127.17;;;9.75;100.00
17450;BME280;8842;51.244;7.102;2023-12-28T08:47:00;99141.74;;;9.64;100.00
17450;BME280;8842;51.244;7.102;2023-12-28T08:52:06;99147.56;;;9.80;100.00
17450;BME280;8842;51.244;7.102;2023-12-28T09:02:21;99153.20;;;10.03;100.00
17450;BME280;8842;51.244;7.102;2023-12-28T09:07:26;99158.50;;;9.92;100.00
17450;BME280;8842;51.244;7.102;2023-12-28T09:17:41;99149.02;;;10.06;100.00
17450;BME280;8842;51.244;7.102;2023-12-28T09:22:45;99160.83;;;10.19;100.00
17450;BME280;8842;51.244;7.102;2023-12-28T09:27:51;99167.95;;;10.13;100.00
17450;BME280;8842;51.244;7.102;2023-12-28T09:38:07;99183.83;;;10.30;100.00
17450;BME280;8842;51.244;7.102;2023-12-28T09:43:15;99183.52;;;10.18;100.00
17450;BME280;8842;51.244;7.102;2023-12-28T09:48:20;99193.03;;;10.20;100.00
17450;BME280;8842;51.244;7.102;2023-12-28T09:58:37;99168.39;;;10.35;100.00
17450;BME280;8842;51.244;7.102;2023-12-28T10:08:55;99172.12;;;10.49;100.00
17450;BME280;8842;51.244;7.102;2023-12-28T10:14:00;99178.25;;;10.49;100.00
17450;BME280;8842;51.244;7.102;2023-12-28T10:19:05;99163.98;;;10.61;100.00
17450;BME280;8842;51.244;7.102;2023-12-28T10:24:10;99166.23;;;10.71;100.00
17450;BME280;8842;51.244;7.102;2023-12-28T10:29:14;99158.39;;;10.70;100.00
17450;BME280;8842;51.244;7.102;2023-12-28T10:34:19;99151.56;;;10.88;100.00
17450;BME280;8842;51.244;7.102;2023-12-28T10:44:38;99163.77;;;10.85;100.00
17450;BME280;8842;51.244;7.102;2023-12-28T10:55:04;99160.16;;;11.12;100.00
17450;BME280;8842;51.244;7.102;2023-12-28T11:00:13;99169.45;;;11.12;100.00
17450;BME280;8842;51.244;7.102;2023-12-28T11:05:17;99156.98;;;11.18;100.00
17450;BME280;8842;51.244;7.102;2023-12-28T11:10:22;99140.22;;;11.12;100.00
17450;BME280;8842;51.244;7.102;2023-12-28T11:20:40;99140.17;;;11.23;100.00
17450;BME280;8842;51.244;7.102;2023-12-28T11:25:45;99134.22;;;11.25;100.00
17450;BME280;8842;51.244;7.102;2023-12-28T11:30:49;99133.48;;;11.28;100.00
17450;BME280;8842;51.244;7.102;2023-12-28T11:41:06;99144.19;;;11.53;100.00
17450;BME280;8842;51.244;7.102;2023-12-28T11:51:22;99131.40;;;11.52;100.00
17450;BME280;8842;51.244;7.102;2023-12-28T11:56:26;99140.46;;;11.50;100.00
17450;BME280;8842;51.244;7.102;2023-12-28T12:01:30;99122.75;;;11.45;100.00
17450;BME280;8842;51.244;7.102;2023-12-28T12:11:46;99093.64;;;11.58;100.00
17450;BME280;8842;51.244;7.102;2023-12-28T12:16:50;99106.54;;;11.78;100.00
17450;BME280;8842;51.244;7.102;2023-12-28T12:27:08;99111.86;;;11.78;100.00
17450;BME280;8842;51.244;7.102;2023-12-28T12:37:24;99103.08;;;11.87;100.00
17450;BME280;8842;51.244;7.102;2023-12-28T12:42:29;99091.16;;;11.81;100.00
17450;BME280;8842;51.244;7.102;2023-12-28T12:52:46;99079.77;;;11.85;100.00
17450;BME280;8842;51.244;7.102;2023-12-28T12:57:51;99064.69;;;11.80;100.00
17450;BME280;8842;51.244;7.102;2023-12-28T13:08:11;99055.89;;;11.89;100.00
17450;BME280;8842;51.244;7.102;2023-12-28T13:13:15;99063.63;;;11.77;97.55
17450;BME280;8842;51.244;7.102;2023-12-28T13:18:19;99056.30;;;11.84;99.28
17450;BME280;8842;51.244;7.102;2023-12-28T13:28:38;99057.98;;;11.85;100.00
17450;BME280;8842;51.244;7.102;2023-12-28T13:38:54;99048.66;;;11.76;100.00
17450;BME280;8842;51.244;7.102;2023-12-28T13:43:58;99055.39;;;11.65;97.91
17450;BME280;8842;51.244;7.102;2023-12-28T13:49:04;99059.64;;;11.62;97.46
17450;BME280;8842;51.244;7.102;2023-12-28T13:54:10;99056.98;;;11.62;100.00
17450;BME280;8842;51.244;7.102;2023-12-28T13:59:14;99051.77;;;11.60;97.88
17450;BME280;8842;51.244;7.102;2023-12-28T14:09:30;99042.65;;;11.53;98.30
17450;BME280;8842;51.244;7.102;2023-12-28T14:14:36;99046.42;;;11.36;96.52
17450;BME280;8842;51.244;7.102;2023-12-28T14:19:40;99033.48;;;11.37;98.90
17450;BME280;8842;51.244;7.102;2023-12-28T14:24:45;99041.03;;;11.32;99.10
17450;BME280;8842;51.244;7.102;2023-12-28T14:29:50;99037.59;;;11.35;97.10
17450;BME280;8842;51.244;7.102;2023-12-28T14:34:55;99035.60;;;11.28;96.71
17450;BME280;8842;51.244;7.102;2023-12-28T14:40:00;99043.15;;;11.23;97.88
17450;BME280;8842;51.244;7.102;2023-12-28T14:45:08;99033.73;;;11.19;98.99
17450;BME280;8842;51.244;7.102;2023-12-28T14:50:12;99035.55;;;11.03;100.00
17450;BME280;8842;51.244;7.102;2023-12-28T14:55:17;99034.88;;;10.96;98.86
17450;BME280;8842;51.244;7.102;2023-12-28T15:00:21;99046.39;;;11.06;99.49
17450;BME280;8842;51.244;7.102;2023-12-28T15:10:41;99041.95;;;11.01;100.00
17450;BME280;8842;51.244;7.102;2023-12-28T15:15:46;99045.28;;;10.93;99.65
17450;BME280;8842;51.244;7.102;2023-12-28T15:26:05;99029.73;;;10.89;99.69
17450;BME280;8842;51.244;7.102;2023-12-28T15:31:10;99024.97;;;10.98;100.00
17450;BME280;8842;51.244;7.102;2023-12-28T15:41:26;99003.14;;;10.74;100.00
17450;BME280;8842;51.244;7.102;2023-12-28T15:46:30;99016.21;;;10.66;100.00
17450;BME280;8842;51.244;7.102;2023-12-28T15:56:46;99009.92;;;10.67;100.00
17450;BME280;8842;51.244;7.102;2023-12-28T16:01:50;99013.55;;;10.45;100.00
17450;BME280;8842;51.244;7.102;2023-12-28T16:06:54;99018.25;;;10.47;100.00
17450;BME280;8842;51.244;7.102;2023-12-28T16:17:11;99016.89;;;10.53;100.00
17450;BME280;8842;51.244;7.102;2023-12-28T16:27:28;99005.80;;;10.53;100.00
17450;BME280;8842;51.244;7.102;2023-12-28T16:32:32;99008.83;;;10.49;100.00
17450;BME280;8842;51.244;7.102;2023-12-28T16:37:36;99004.03;;;10.43;100.00
17450;BME280;8842;51.244;7.102;2023-12-28T16:42:40;98996.20;;;10.36;100.00
17450;BME280;8842;51.244;7.102;2023-12-28T16:47:44;99010.11;;;10.34;100.00
17450;BME280;8842;51.244;7.102;2023-12-28T16:52:49;99001.25;;;10.44;100.00
17450;BME280;8842;51.244;7.102;2023-12-28T16:57:53;98997.62;;;10.45;100.00
17450;BME280;8842;51.244;7.102;2023-12-28T17:02:57;98993.34;;;10.54;100.00
17450;BME280;8842;51.244;7.102;2023-12-28T17:13:14;98983.53;;;10.60;100.00
17450;BME280;8842;51.244;7.102;2023-12-28T17:18:20;98992.78;;;10.45;100.00
17450;BME280;8842;51.244;7.102;2023-12-28T17:23:30;98993.28;;;10.44;100.00
17450;BME280;8842;51.244;7.102;2023-12-28T17:33:48;99000.18;;;10.41;100.00
17450;BME280;8842;51.244;7.102;2023-12-28T17:38:53;99000.30;;;10.40;100.00
17450;BME280;8842;51.244;7.102;2023-12-28T17:49:24;98988.11;;;10.43;100.00
17450;BME280;8842;51.244;7.102;2023-12-28T17:59:41;99001.38;;;10.43;100.00
17450;BME280;8842;51.244;7.102;2023-12-28T18:04:45;99005.74;;;10.33;100.00
17450;BME280;8842;51.244;7.102;2023-12-28T18:09:49;99003.34;;;10.30;100.00
17450;BME280;8842;51.244;7.102;2023-12-28T18:14:56;99001.80;;;10.27;100.00
17450;BME280;8842;51.244;7.102;2023-12-28T18:20:00;99010.11;;;10.34;100.00
17450;BME280;8842;51.244;7.102;2023-12-28T18:25:06;99009.13;;;10.35;100.00
17450;BME280;8842;51.244;7.102;2023-12-28T18:30:12;99004.20;;;10.30;100.00
17450;BME280;8842;51.244;7.102;2023-12-28T18:35:16;99004.39;;;10.18;100.00
17450;BME280;8842;51.244;7.102;2023-12-28T18:40:20;99002.55;;;10.24;100.00
17450;BME280;8842;51.244;7.102;2023-12-28T18:45:24;98999.17;;;10.22;100.00
17450;BME280;8842;51.244;7.102;2023-12-28T18:50:29;99000.78;;;10.07;100.00
17450;BME280;8842;51.244;7.102;2023-12-28T18:55:37;99003.19;;;10.10;100.00
17450;BME280;8842;51.244;7.102;2023-12-28T19:00:41;99006.09;;;10.07;100.00
17450;BME280;8842;51.244;7.102;2023-12-28T19:05:45;99005.59;;;10.13;100.00
17450;BME280;8842;51.244;7.102;2023-12-28T19:10:49;98998.38;;;10.10;100.00
17450;BME280;8842;51.244;7.102;2023-12-28T19:15:53;98983.62;;;10.06;100.00
17450;BME280;8842;51.244;7.102;2023-12-28T19:20:58;98996.33;;;10.08;100.00
17450;BME280;8842;51.244;7.102;2023-12-28T19:26:02;99000.44;;;10.06;100.00
17450;BME280;8842;51.244;7.102;2023-12-28T19:31:06;98990.89;;;10.09;100.00
17450;BME280;8842;51.244;7.102;2023-12-28T19:36:10;98989.09;;;10.10;100.00
17450;BME280;8842;51.244;7.102;2023-12-28T19:41:14;99000.66;;;10.03;100.00
17450;BME280;8842;51.244;7.102;2023-12-28T19:51:29;98985.20;;;10.03;100.00
17450;BME280;8842;51.244;7.102;2023-12-28T19:56:34;98980.30;;;9.93;100.00
17450;BME280;8842;51.244;7.102;2023-12-28T20:06:54;98967.30;;;9.90;100.00
17450;BME280;8842;51.244;7.102;2023-12-28T20:12:00;98969.14;;;9.78;100.00
17450;BME280;8842;51.244;7.102;2023-12-28T20:17:04;98972.05;;;9.75;100.00
17450;BME280;8842;51.244;7.102;2023-12-28T20:22:08;98960.34;;;9.83;100.00
17450;BME280;8842;51.244;7.102;2023-12-28T20:27:12;98955.98;;;9.82;100.00
17450;BME280;8842;51.244;7.102;2023-12-28T20:32:16;98957.66;;;9.89;100.00
17450;BME280;8842;51.244;7.102;2023-12-28T20:37:20;98965.49;;;9.90;100.00
17450;BME280;8842;51.244;7.102;2023-12-28T20:42:25;98951.00;;;9.94;100.00
17450;BME280;8842;51.244;7.102;2023-12-28T20:47:29;98954.66;;;9.82;100.00
17450;BME280;8842;51.244;7.102;2023-12-28T20:57:45;98937.14;;;9.91;100.00
17450;BME280;8842;51.244;7.102;2023-12-28T21:02:49;98943.45;;;9.84;100.00
17450;BME280;8842;51.244;7.102;2023-12-28T21:07:53;98951.38;;;9.90;100.00
17450;BME280;8842;51.244;7.102;2023-12-28T21:12:57;98948.95;;;9.92;100.00
17450;BME280;8842;51.244;7.102;2023-12-28T21:18:05;98943.70;;;9.81;100.00
17450;BME280;8842;51.244;7.102;2023-12-28T21:23:09;98943.95;;;9.78;100.00
17450;BME280;8842;51.244;7.102;2023-12-28T21:28:14;98947.83;;;9.74;100.00
17450;BME280;8842;51.244;7.102;2023-12-28T21:33:18;98940.45;;;9.83;100.00
17450;BME280;8842;51.244;7.102;2023-12-28T21:43:34;98939.94;;;9.84;100.00
17450;BME280;8842;51.244;7.102;2023-12-28T21:48:39;98923.94;;;9.80;100.00
17450;BME280;8842;51.244;7.102;2023-12-28T21:53:43;98924.79;;;9.80;100.00
17450;BME280;8842;51.244;7.102;2023-12-28T21:58:47;98942.84;;;9.86;100.00
17450;BME280;8842;51.244;7.102;2023-12-28T22:03:51;98931.52;;;9.84;100.00
17450;BME280;8842;51.244;7.102;2023-12-28T22:08:56;98931.98;;;9.84;100.00
17450;BME280;8842;51.244;7.102;2023-12-28T22:14:00;98919.13;;;9.74;100.00
17450;BME280;8842;51.244;7.102;2023-12-28T22:19:04;98916.80;;;9.86;100.00
17450;BME280;8842;51.244;7.102;2023-12-28T22:24:08;98921.47;;;9.93;100.00
17450;BME280;8842;51.244;7.102;2023-12-28T22:29:12;98918.85;;;9.88;100.00
17450;BME280;8842;51.244;7.102;2023-12-28T22:34:16;98908.22;;;9.93;100.00
17450;BME280;8842;51.244;7.102;2023-12-28T22:39:20;98906.13;;;9.97;100.00
17450;BME280;8842;51.244;7.102;2023-12-28T22:44:25;98905.05;;;9.99;100.00
17450;BME280;8842;51.244;7.102;2023-12-28T22:49:29;98884.52;;;10.01;100.00
17450;BME280;8842;51.244;7.102;2023-12-28T22:54:33;98890.90;;;10.04;100.00
17450;BME280;8842;51.244;7.102;2023-12-28T22:59:37;98887.42;;;10.09;100.00
17450;BME280;8842;51.244;7.102;2023-12-28T23:04:43;98886.56;;;10.15;100.00
17450;BME280;8842;51.244;7.102;2023-12-28T23:09:48;98871.07;;;10.20;100.00
17450;BME280;8842;51.244;7.102;2023-12-28T23:20:06;98867.98;;;10.30;100.00
17450;BME280;8842;51.244;7.102;2023-12-28T23:30:27;98852.23;;;10.23;100.00
17450;BME280;8842;51.244;7.102;2023-12-28T23:40:43;98859.88;;;10.37;100.00
17450;BME280;8842;51.244;7.102;2023-12-28T23:45:49;98841.56;;;10.34;100.00
17450;BME280;8842;51.244;7.102;2023-12-28T23:56:06;98848.34;;;10.47;100.00
